Kezdőlap
METAR-TAF:

METAR-TAF

Repülőterek :

Eliszta, Oroszország

földrajzi szélesség: 46-22N, földrajzi hosszúság: 044-20E, magasság: 150 m

Jelenlegi meteorológiai megfigyelések

A jelentés 34 perccel ezelõtt készült, 09:30 UTC
Keleti szél 14 kt
Hőmérséklet -1°C
Páratartalom 100%
Légköri nyomás 1019 hPa
Látótávolság: 0150 m
zúzmarás köd

METAR: URWI 130930Z 10007MPS 0200 0150S R09/0200N FZFG VV002 M01/M01 Q1019 R09/190055 NOSIG RMK QBB060 OBST OBSC

Idő: 14:04 (10:04 UTC)

Előrejelzés

A jelentés 1 órával és 44 perccel ezelõtt készült, 08:20 UTC
Az előrejelzés 13-én 09 óra UTC és 13-én 18 óra UTC között érvényes
Keleti szél 12 kt széllökések: 25 kt
Látótávolság: 0300 m
Borult 200 lábon
zúzmarás köd
13-én 09 óra UTC és 13-én 18 óra UTC között ideiglenes
Látótávolság: 0800 m
Borult 300 lábon
(gyenge) fagy, szitálás, zúzmarás köd

TAF: URWI 130820Z 1309/1318 09006G13MPS 0300 FZFG OVC002 TEMPO 1309/1318 0800 -FZDZ FZFG OVC003

Meteorológiai megfigyelések és előrejelzések több, mint 4000 repülőtéren (METAR és TAF jelentéseket).

A térképen piros és sárga pontok jelzik az elérhető meteorológiai állomásokat.

Mozgassa az egeret a pont fölött, hogy megjelenjen az állomás neve.

Azután kattintson az időjárási megfigyelések és előrejelzések megtekintéséhez.

A térkép megváltoztatása: kattintson a fekete keresztel jelölt zöld gombra ráközelítéshez, a vonallal jelölt zöld gombra távolításhoz, vagy a zöld nyilakra a szomszédos térképek eléréséhez.


METAR-TAF: